Time;durP1;ratioP1;P1;durP2;ratioP2;P2;SDS_P1;SDS_P2;PMS_P1;PMS_P2;Temp;Humidity;BMP_temperature;BMP_pressure;BME280_temperature;BME280_humidity;BME280_pressure;Samples;Min_cycle;Max_cycle;Signal;HPM_P1;HPM_P2
2021/06/17 15:58:50;;;;;;;;;;;;;;;;;;4429213;31;1067094;-67
2021/06/17 16:01:17;;;;;;;;;;;;;;;;;;4465323;32;19980;-67
2021/06/17 16:03:43;;;;;;;;;;;;;;;;;;4464990;32;19949;-67
2021/06/17 16:06:09;;;;;;;;;;;;;;;;;;4465404;32;19978;-66
2021/06/17 16:08:35;;;;;;;;;;;;;;;;;;4465719;32;19968;-66
2021/06/17 16:11:01;;;;;;;;;;;;;;;;;;4465167;32;20947;-66
2021/06/17 16:13:27;;;;;;;;;;;;;;;;;;4465353;32;19960;-66
2021/06/17 16:15:53;;;;;;;;;;;;;;;;;;4464761;32;19965;-66
2021/06/17 16:18:18;;;;;;;;;;;;;;;;;;4464680;32;19953;-68
2021/06/17 16:20:44;;;;;;;;;;;;;;;;;;4465257;32;19996;-67
2021/06/17 16:23:10;;;;;;;;;;;;;;;;;;4465373;32;20009;-66
2021/06/17 16:25:36;;;;;;;;;;;;;;;;;;4463189;32;19968;-76
2021/06/17 16:28:02;;;;;;;;;;;;;;;;;;4464666;32;19953;-69
2021/06/17 16:30:28;;;;;;;;;;;;;;;;;;4464822;32;20337;-69
2021/06/17 16:32:55;;;;;;;;;;;;;;;;;;4464499;32;19972;-69
2021/06/17 16:35:21;;;;;;;;;;;;;;;;;;4465316;32;20470;-70
2021/06/17 16:37:47;;;;;;;;;;;;;;;;;;4464944;32;19946;-68
2021/06/17 16:40:13;;;;;;;;;;;;;;;;;;4464661;32;20303;-68
2021/06/17 16:42:39;;;;;;;;;;;;;;;;;;4465151;32;20368;-69
2021/06/17 16:45:04;;;;;;;;;;;;;;;;;;4464552;32;19973;-67
2021/06/17 16:47:31;;;;;;;;;;;;;;;;;;4464457;32;19949;-67
2021/06/17 16:50:00;;;;;;;;;;;;;;;;;;4464934;32;19992;-67
2021/06/17 16:52:26;;;;;;;;;;;;;;;;;;4465070;32;19953;-67
2021/06/17 16:54:52;;;;;;;;;;;;;;;;;;4452548;32;20040;-67
2021/06/17 16:57:18;;;;;;;;;;;;;;;;;;4448805;32;19952;-67
2021/06/17 16:59:44;;;;;;;;;;;;;;;;;;4448683;32;19959;-68
2021/06/17 17:02:10;;;;;;;;;;;;;;;;;;4448724;32;19977;-66
2021/06/17 17:04:36;;;;;;;;;;;;;;;;;;4449308;32;19950;-65
2021/06/17 17:07:03;;;;;;;;;;;;;;;;;;4448572;32;19980;-66
2021/06/17 17:09:29;;;;;;;;;;;;;;;;;;4441754;32;19968;-70
2021/06/17 17:11:56;;;;;;;;;;;;;;;;;;4438780;32;20280;-67
2021/06/17 17:14:23;;;;;;;;;;;;;;;;;;4438340;32;19964;-69
2021/06/17 17:16:49;;;;;;;;;;;;;;;;;;4438003;32;20025;-71
2021/06/17 17:19:16;;;;;;;;;;;;;;;;;;4436933;32;20332;-72
2021/06/17 17:21:42;;;;;;;;;;;;;;;;;;4438148;32;20369;-72
2021/06/17 17:24:08;;;;;;;;;;;;;;;;;;4437848;32;19949;-71
2021/06/17 17:26:34;;;;;;;;;;;;;;;;;;4436535;32;20101;-72
2021/06/17 17:29:00;;;;;;;;;;;;;;;;;;4437915;32;20005;-72
2021/06/17 17:31:26;;;;;;;;;;;;;;;;;;4438035;32;19956;-71
2021/06/17 17:33:52;;;;;;;;;;;;;;;;;;4437916;32;20336;-72
2021/06/17 17:36:18;;;;;;;;;;;;;;;;;;4438000;32;20010;-71
2021/06/17 17:38:44;;;;;;;;;;;;;;;;;;4438321;32;19976;-72
2021/06/17 17:41:10;;;;;;;;;;;;;;;;;;4438335;32;19938;-71
2021/06/17 17:43:36;;;;;;;;;;;;;;;;;;4437907;32;20021;-71
2021/06/17 17:46:02;;;;;;;;;;;;;;;;;;4438157;32;20387;-71
2021/06/17 17:48:28;;;;;;;;;;;;;;;;;;4438454;32;19953;-71
2021/06/17 17:50:54;;;;;;;;;;;;;;;;;;4438219;32;19958;-72
2021/06/17 17:53:19;;;;;;;;;;;;;;;;;;4437776;32;20284;-71
2021/06/17 17:55:45;;;;;;;;;;;;;;;;;;4438141;32;19945;-72
2021/06/17 17:58:11;;;;;;;;;;;;;;;;;;4437718;32;20324;-71
2021/06/17 18:00:37;;;;;;;;;;;;;;;;;;4438218;32;20302;-71
2021/06/17 18:03:05;;;;;;;;;;;;;;;;;;4437946;32;19979;-71
2021/06/17 18:05:33;;;;;;;;;;;;;;;;;;4437561;32;19987;-71
2021/06/17 18:07:59;;;;;;;;;;;;;;;;;;4437449;32;19982;-71
2021/06/17 18:10:25;;;;;;;;;;;;;;;;;;4437624;32;19950;-71
2021/06/17 18:12:52;;;;;;;;;;;;;;;;;;4437467;32;19977;-72
2021/06/17 18:15:23;;;;;;;;;;;;;;;;;;4438060;32;19967;-71
2021/06/17 18:17:51;;;;;;;;;;;;;;;;;;4437777;32;19950;-71
2021/06/17 18:20:17;;;;;;;;;;;;;;;;;;4436764;32;19986;-71
2021/06/17 18:22:43;;;;;;;;;;;;;;;;;;4437558;32;20001;-71
2021/06/17 18:25:09;;;;;;;;;;;;;;;;;;4437922;32;20336;-71
2021/06/17 18:27:36;;;;;;;;;;;;;;;;;;4437440;32;19952;-71
2021/06/17 18:30:02;;;;;;;;;;;;;;;;;;4437501;32;19971;-71
2021/06/17 18:32:28;;;;;;;;;;;;;;;;;;4436322;32;19949;-71
2021/06/17 18:34:54;;;;;;;;;;;;;;;;;;4437196;32;20017;-71
2021/06/17 18:37:20;;;;;;;;;;;;;;;;;;4437703;32;20257;-72
2021/06/17 18:39:46;;;;;;;;;;;;;;;;;;4437059;32;19952;-71
2021/06/17 18:42:12;;;;;;;;;;;;;;;;;;4437651;32;20024;-71
2021/06/17 18:44:38;;;;;;;;;;;;;;;;;;4435997;32;19993;-71
2021/06/17 18:47:04;;;;;;;;;;;;;;;;;;4437424;32;19941;-71
2021/06/17 18:49:30;;;;;;;;;;;;;;;;;;4436203;32;20020;-71
2021/06/17 18:51:56;;;;;;;;;;;;;;;;;;4436855;32;20355;-72
2021/06/17 18:54:35;;;;;;;;;;;;;;;;;;4437483;32;19973;-71
2021/06/17 18:57:01;;;;;;;;;;;;;;;;;;4436520;32;19953;-71
2021/06/17 18:59:27;;;;;;;;;;;;;;;;;;4437517;32;19956;-72
2021/06/17 19:01:53;;;;;;;;;;;;;;;;;;4435659;32;19953;-72
2021/06/17 19:04:18;;;;;;;;;;;;;;;;;;4436969;32;19950;-72
2021/06/17 19:06:44;;;;;;;;;;;;;;;;;;4436678;32;19976;-72
2021/06/17 19:09:11;;;;;;;;;;;;;;;;;;4436806;32;19953;-72
2021/06/17 19:11:37;;;;;;;;;;;;;;;;;;4437067;32;19953;-72
2021/06/17 19:14:02;;;;;;;;;;;;;;;;;;4436975;32;19953;-72
2021/06/17 19:16:28;;;;;;;;;;;;;;;;;;4436830;32;19964;-72
2021/06/17 19:18:55;;;;;;;;;;;;;;;;;;4436522;32;19980;-71
2021/06/17 19:21:21;;;;;;;;;;;;;;;;;;4437039;32;19994;-72
2021/06/17 19:23:47;;;;;;;;;;;;;;;;;;4436465;32;19985;-72
2021/06/17 19:26:13;;;;;;;;;;;;;;;;;;4436537;32;19961;-72
2021/06/17 19:28:39;;;;;;;;;;;;;;;;;;4436409;32;20382;-72
2021/06/17 19:31:05;;;;;;;;;;;;;;;;;;4435271;32;19990;-72
2021/06/17 19:33:31;;;;;;;;;;;;;;;;;;4436779;32;19950;-72
2021/06/17 19:35:57;;;;;;;;;;;;;;;;;;4436353;32;19956;-72
2021/06/17 19:38:22;;;;;;;;;;;;;;;;;;4436423;32;19949;-72
2021/06/17 19:40:48;;;;;;;;;;;;;;;;;;4436419;32;19972;-72
2021/06/17 19:43:16;;;;;;;;;;;;;;;;;;4436332;32;20013;-71
2021/06/17 19:45:42;;;;;;;;;;;;;;;;;;4436221;32;19984;-72
2021/06/17 19:48:08;;;;;;;;;;;;;;;;;;4436846;32;20002;-72
2021/06/17 19:50:34;;;;;;;;;;;;;;;;;;4436300;32;19955;-72
2021/06/17 19:53:02;;;;;;;;;;;;;;;;;;4434956;32;19960;-72
2021/06/17 19:57:57;;;;;;;;;;;;;;;;;;4435803;32;19993;-72
2021/06/17 20:00:23;;;;;;;;;;;;;;;;;;4435672;32;19953;-72
2021/06/17 20:02:49;;;;;;;;;;;;;;;;;;4436456;32;19977;-72
2021/06/17 20:05:15;;;;;;;;;;;;;;;;;;4436505;32;19964;-72
2021/06/17 20:07:42;;;;;;;;;;;;;;;;;;4436185;32;19958;-72
2021/06/17 20:10:08;;;;;;;;;;;;;;;;;;4436718;32;20491;-72
2021/06/17 20:12:36;;;;;;;;;;;;;;;;;;4435149;32;19964;-72
2021/06/17 20:15:02;;;;;;;;;;;;;;;;;;4435919;32;19984;-72
2021/06/17 20:17:28;;;;;;;;;;;;;;;;;;4436172;32;20299;-72
2021/06/17 20:19:54;;;;;;;;;;;;;;;;;;4435022;32;19945;-72
2021/06/17 20:22:20;;;;;;;;;;;;;;;;;;4436159;32;19942;-72
2021/06/17 20:24:46;;;;;;;;;;;;;;;;;;4436306;32;19952;-72
2021/06/17 20:27:12;;;;;;;;;;;;;;;;;;4436638;32;20002;-72
2021/06/17 20:29:38;;;;;;;;;;;;;;;;;;4436370;32;19989;-72
2021/06/17 20:32:05;;;;;;;;;;;;;;;;;;4435924;32;19997;-71
2021/06/17 20:34:31;;;;;;;;;;;;;;;;;;4436160;32;19958;-72
2021/06/17 20:36:57;;;;;;;;;;;;;;;;;;4435747;32;20317;-72
2021/06/17 20:39:23;;;;;;;;;;;;;;;;;;4435922;32;19983;-72
2021/06/17 20:41:49;;;;;;;;;;;;;;;;;;4435824;32;19950;-71
2021/06/17 20:44:15;;;;;;;;;;;;;;;;;;4437638;32;19993;-72
2021/06/17 20:46:41;;;;;;;;;;;;;;;;;;4438711;32;19953;-71
2021/06/17 20:49:07;;;;;;;;;;;;;;;;;;4439410;32;19964;-71
2021/06/17 20:51:33;;;;;;;;;;;;;;;;;;4438807;32;20298;-71
2021/06/17 20:53:59;;;;;;;;;;;;;;;;;;4438557;32;19950;-71
2021/06/17 20:56:25;;;;;;;;;;;;;;;;;;4438772;32;19981;-71
2021/06/17 20:58:51;;;;;;;;;;;;;;;;;;4439018;32;19945;-71
2021/06/17 21:01:17;;;;;;;;;;;;;;;;;;4438620;32;19961;-71
2021/06/17 21:03:43;;;;;;;;;;;;;;;;;;4438414;32;20400;-71
2021/06/17 21:06:09;;;;;;;;;;;;;;;;;;4438784;32;19946;-72
2021/06/17 21:08:35;;;;;;;;;;;;;;;;;;4438421;32;19963;-72
2021/06/17 21:11:00;;;;;;;;;;;;;;;;;;4438339;32;20001;-71
2021/06/17 21:13:26;;;;;;;;;;;;;;;;;;4438903;32;20002;-71
2021/06/17 21:15:53;;;;;;;;;;;;;;;;;;4438686;32;20014;-72
2021/06/17 21:18:19;;;;;;;;;;;;;;;;;;4438387;32;20012;-72
2021/06/17 21:20:45;;;;;;;;;;;;;;;;;;4438629;32;19972;-72
2021/06/17 21:23:11;;;;;;;;;;;;;;;;;;4438408;32;19961;-72
2021/06/17 21:25:37;;;;;;;;;;;;;;;;;;4438720;32;19987;-72
2021/06/17 21:28:02;;;;;;;;;;;;;;;;;;4438491;32;20323;-72
2021/06/17 21:30:32;;;;;;;;;;;;;;;;;;4438281;32;19969;-72
2021/06/17 21:32:58;;;;;;;;;;;;;;;;;;4438473;32;20036;-72
2021/06/17 21:35:23;;;;;;;;;;;;;;;;;;4438623;32;20388;-72
2021/06/17 21:37:49;;;;;;;;;;;;;;;;;;4438285;32;19942;-72
2021/06/17 21:40:15;;;;;;;;;;;;;;;;;;4438182;32;19960;-72
2021/06/17 21:42:41;;;;;;;;;;;;;;;;;;4438155;32;19953;-72
2021/06/17 21:45:07;;;;;;;;;;;;;;;;;;4438544;32;19949;-72
2021/06/17 21:47:33;;;;;;;;;;;;;;;;;;4438074;32;19945;-72
2021/06/17 21:49:59;;;;;;;;;;;;;;;;;;4438304;32;19987;-72
2021/06/17 21:52:25;;;;;;;;;;;;;;;;;;4436775;32;19953;-72
2021/06/17 21:54:51;;;;;;;;;;;;;;;;;;4437618;32;20040;-72
2021/06/17 21:57:17;;;;;;;;;;;;;;;;;;4437851;32;19953;-73
2021/06/17 21:59:43;;;;;;;;;;;;;;;;;;4437713;32;19996;-72
2021/06/17 22:02:09;;;;;;;;;;;;;;;;;;4436761;32;19953;-72
2021/06/17 22:04:35;;;;;;;;;;;;;;;;;;4438214;32;20310;-73
2021/06/17 22:07:01;;;;;;;;;;;;;;;;;;4437545;32;19957;-71
2021/06/17 22:09:27;;;;;;;;;;;;;;;;;;4438226;32;19949;-72
2021/06/17 22:11:53;;;;;;;;;;;;;;;;;;4437593;32;20019;-72
2021/06/17 22:14:19;;;;;;;;;;;;;;;;;;4437928;32;19984;-72
2021/06/17 22:16:44;;;;;;;;;;;;;;;;;;4437379;32;19949;-72
2021/06/17 22:19:10;;;;;;;;;;;;;;;;;;4438172;32;20297;-72
2021/06/17 22:21:36;;;;;;;;;;;;;;;;;;4437597;32;19941;-72
2021/06/17 22:24:02;;;;;;;;;;;;;;;;;;4436555;32;19984;-72
2021/06/17 22:26:28;;;;;;;;;;;;;;;;;;4437591;32;19956;-72
2021/06/17 22:28:54;;;;;;;;;;;;;;;;;;4436168;32;19949;-71
2021/06/17 22:31:20;;;;;;;;;;;;;;;;;;4437784;32;20308;-71
2021/06/17 22:33:46;;;;;;;;;;;;;;;;;;4437144;32;19960;-71
2021/06/17 22:36:12;;;;;;;;;;;;;;;;;;4437345;32;19987;-71
2021/06/17 22:38:38;;;;;;;;;;;;;;;;;;4437776;32;20260;-71
2021/06/17 22:41:04;;;;;;;;;;;;;;;;;;4437055;32;19949;-72
2021/06/17 22:43:30;;;;;;;;;;;;;;;;;;4437707;32;19946;-71
2021/06/17 22:45:57;;;;;;;;;;;;;;;;;;4437027;32;19953;-71
2021/06/17 22:48:22;;;;;;;;;;;;;;;;;;4437111;32;19988;-71
2021/06/17 22:50:48;;;;;;;;;;;;;;;;;;4437023;32;20039;-71
2021/06/17 22:53:14;;;;;;;;;;;;;;;;;;4437580;32;20564;-71
2021/06/17 22:55:40;;;;;;;;;;;;;;;;;;4437098;32;19967;-71
2021/06/17 22:58:06;;;;;;;;;;;;;;;;;;4437061;32;19942;-70
2021/06/17 23:00:32;;;;;;;;;;;;;;;;;;4437085;32;20018;-70
2021/06/17 23:03:08;;;;;;;;;;;;;;;;;;4437216;32;20000;-71
2021/06/17 23:05:34;;;;;;;;;;;;;;;;;;4437423;32;19992;-71
2021/06/17 23:08:00;;;;;;;;;;;;;;;;;;4436531;32;19974;-71
2021/06/17 23:10:26;;;;;;;;;;;;;;;;;;4437308;32;19960;-70
2021/06/17 23:12:52;;;;;;;;;;;;;;;;;;4436679;32;20109;-71
2021/06/17 23:15:18;;;;;;;;;;;;;;;;;;4437313;32;19949;-71
2021/06/17 23:17:44;;;;;;;;;;;;;;;;;;4436960;32;19964;-71
2021/06/17 23:20:10;;;;;;;;;;;;;;;;;;4437271;32;20303;-71
2021/06/17 23:22:36;;;;;;;;;;;;;;;;;;4436768;32;20410;-71
2021/06/17 23:25:02;;;;;;;;;;;;;;;;;;4436471;32;19991;-71
2021/06/17 23:27:27;;;;;;;;;;;;;;;;;;4437070;32;19945;-71
2021/06/17 23:29:53;;;;;;;;;;;;;;;;;;4436421;32;19945;-71
2021/06/17 23:32:19;;;;;;;;;;;;;;;;;;4435084;32;20016;-72
2021/06/17 23:34:47;;;;;;;;;;;;;;;;;;4434882;32;19957;-71
2021/06/17 23:37:12;;;;;;;;;;;;;;;;;;4435488;32;20000;-71
2021/06/17 23:39:38;;;;;;;;;;;;;;;;;;4436299;32;20423;-71
2021/06/17 23:42:04;;;;;;;;;;;;;;;;;;4436363;32;19955;-71
2021/06/17 23:44:30;;;;;;;;;;;;;;;;;;4436994;32;19952;-71
2021/06/17 23:46:56;;;;;;;;;;;;;;;;;;4436736;32;19955;-71
2021/06/17 23:49:22;;;;;;;;;;;;;;;;;;4436298;32;20018;-71
2021/06/17 23:51:48;;;;;;;;;;;;;;;;;;4436704;32;19959;-71
2021/06/17 23:54:14;;;;;;;;;;;;;;;;;;4436450;32;19994;-71
2021/06/17 23:56:40;;;;;;;;;;;;;;;;;;4436206;32;19949;-71
2021/06/17 23:59:06;;;;;;;;;;;;;;;;;;4436545;32;19942;-71
